Bintulu, Malaysia
Current Conditions -  °F | °C
As of 2:00 PM on Saturday 25 Oct 2014 (Local Time) from WBGB Reporting Station
Broken Clouds Broken Clouds  
Wind Chill: 90°   Ceiling: 30000
Heat Index: 100°   Visibility: 6mi
Dew Point: 75°   Wind: 6mph
Humidity: 62%   Direction: 310°NW
Pressure: 29.8"   Gusts: NA
Location:  3.17°N, 113.03°E
Report Text: WBGB 250600Z 31005KT 9999 SCT014 BKN300 32/24 Q1009
Loading
Personal Weather Stations






























Interactive Weather Map
Tropical Storm Tracking
New forecast layout! Learn more

10-Day Weather Forecast

Advertisements
Track Severe Weather on mobile